sensor_id;sensor_type;location;lat;lon;timestamp;P1;durP1;ratioP1;P2;durP2;ratioP2
80295;SDS011;69597;42.124;24.722;2023-05-10T00:00:14;8.32;;;5.18;;
80295;SDS011;69597;42.124;24.722;2023-05-10T00:02:40;8.00;;;4.88;;
80295;SDS011;69597;42.124;24.722;2023-05-10T00:05:06;9.85;;;5.00;;
80295;SDS011;69597;42.124;24.722;2023-05-10T00:07:32;8.57;;;4.90;;
80295;SDS011;69597;42.124;24.722;2023-05-10T00:09:58;8.10;;;4.60;;
80295;SDS011;69597;42.124;24.722;2023-05-10T00:12:23;7.15;;;4.50;;
80295;SDS011;69597;42.124;24.722;2023-05-10T00:14:49;7.18;;;4.65;;
80295;SDS011;69597;42.124;24.722;2023-05-10T00:17:14;7.80;;;4.80;;
80295;SDS011;69597;42.124;24.722;2023-05-10T00:19:40;9.55;;;4.50;;
80295;SDS011;69597;42.124;24.722;2023-05-10T00:22:06;8.55;;;5.15;;
80295;SDS011;69597;42.124;24.722;2023-05-10T00:24:31;6.82;;;4.38;;
80295;SDS011;69597;42.124;24.722;2023-05-10T00:26:57;8.27;;;4.60;;
80295;SDS011;69597;42.124;24.722;2023-05-10T00:29:23;8.48;;;4.78;;
80295;SDS011;69597;42.124;24.722;2023-05-10T00:31:49;9.10;;;4.90;;
80295;SDS011;69597;42.124;24.722;2023-05-10T00:34:14;7.40;;;4.43;;
80295;SDS011;69597;42.124;24.722;2023-05-10T00:36:40;7.78;;;4.20;;
80295;SDS011;69597;42.124;24.722;2023-05-10T00:39:06;7.88;;;4.57;;
80295;SDS011;69597;42.124;24.722;2023-05-10T00:41:32;6.80;;;4.25;;
80295;SDS011;69597;42.124;24.722;2023-05-10T00:43:58;7.40;;;4.45;;
80295;SDS011;69597;42.124;24.722;2023-05-10T00:46:24;6.50;;;4.45;;
80295;SDS011;69597;42.124;24.722;2023-05-10T00:48:50;7.57;;;4.35;;
80295;SDS011;69597;42.124;24.722;2023-05-10T00:51:16;6.28;;;4.20;;
80295;SDS011;69597;42.124;24.722;2023-05-10T00:53:43;7.93;;;4.22;;
80295;SDS011;69597;42.124;24.722;2023-05-10T00:58:37;7.80;;;4.30;;
80295;SDS011;69597;42.124;24.722;2023-05-10T01:01:03;6.97;;;4.05;;
80295;SDS011;69597;42.124;24.722;2023-05-10T01:03:29;6.57;;;4.10;;
80295;SDS011;69597;42.124;24.722;2023-05-10T01:05:56;6.00;;;3.90;;
80295;SDS011;69597;42.124;24.722;2023-05-10T01:08:22;7.32;;;4.07;;
80295;SDS011;69597;42.124;24.722;2023-05-10T01:10:47;7.65;;;4.15;;
80295;SDS011;69597;42.124;24.722;2023-05-10T01:13:16;6.35;;;4.00;;
80295;SDS011;69597;42.124;24.722;2023-05-10T01:15:55;7.03;;;4.05;;
80295;SDS011;69597;42.124;24.722;2023-05-10T01:18:21;5.97;;;4.00;;
80295;SDS011;69597;42.124;24.722;2023-05-10T01:20:48;6.32;;;3.90;;
80295;SDS011;69597;42.124;24.722;2023-05-10T01:34:30;7.25;;;3.90;;
80295;SDS011;69597;42.124;24.722;2023-05-10T01:37:06;8.50;;;3.83;;
80295;SDS011;69597;42.124;24.722;2023-05-10T01:42:20;9.25;;;4.00;;
80295;SDS011;69597;42.124;24.722;2023-05-10T01:47:44;7.93;;;3.65;;
80295;SDS011;69597;42.124;24.722;2023-05-10T01:50:17;6.43;;;3.92;;
80295;SDS011;69597;42.124;24.722;2023-05-10T01:52:47;7.18;;;4.10;;
80295;SDS011;69597;42.124;24.722;2023-05-10T01:55:26;9.15;;;3.70;;
80295;SDS011;69597;42.124;24.722;2023-05-10T01:58:01;6.32;;;3.60;;
80295;SDS011;69597;42.124;24.722;2023-05-10T02:00:33;6.68;;;3.60;;
80295;SDS011;69597;42.124;24.722;2023-05-10T02:03:01;6.25;;;3.40;;
80295;SDS011;69597;42.124;24.722;2023-05-10T02:05:30;7.07;;;3.60;;
80295;SDS011;69597;42.124;24.722;2023-05-10T02:07:58;8.73;;;3.83;;
80295;SDS011;69597;42.124;24.722;2023-05-10T02:12:52;6.43;;;3.63;;
80295;SDS011;69597;42.124;24.722;2023-05-10T02:15:22;6.78;;;3.75;;
80295;SDS011;69597;42.124;24.722;2023-05-10T02:17:49;7.35;;;4.00;;
80295;SDS011;69597;42.124;24.722;2023-05-10T02:20:17;8.02;;;4.07;;
80295;SDS011;69597;42.124;24.722;2023-05-10T02:22:45;6.80;;;3.80;;
80295;SDS011;69597;42.124;24.722;2023-05-10T02:25:13;6.32;;;3.90;;
80295;SDS011;69597;42.124;24.722;2023-05-10T02:27:41;6.20;;;3.70;;
80295;SDS011;69597;42.124;24.722;2023-05-10T02:30:08;7.13;;;3.58;;
80295;SDS011;69597;42.124;24.722;2023-05-10T02:32:36;6.55;;;3.88;;
80295;SDS011;69597;42.124;24.722;2023-05-10T02:35:03;6.13;;;3.67;;
80295;SDS011;69597;42.124;24.722;2023-05-10T02:37:30;5.30;;;3.17;;
80295;SDS011;69597;42.124;24.722;2023-05-10T02:39:57;7.63;;;4.00;;
80295;SDS011;69597;42.124;24.722;2023-05-10T02:42:25;5.40;;;3.42;;
80295;SDS011;69597;42.124;24.722;2023-05-10T02:44:53;6.80;;;3.70;;
80295;SDS011;69597;42.124;24.722;2023-05-10T02:47:24;6.25;;;3.60;;
80295;SDS011;69597;42.124;24.722;2023-05-10T02:49:50;7.00;;;3.45;;
80295;SDS011;69597;42.124;24.722;2023-05-10T02:52:18;6.70;;;3.50;;
80295;SDS011;69597;42.124;24.722;2023-05-10T02:54:49;6.57;;;3.50;;
80295;SDS011;69597;42.124;24.722;2023-05-10T02:57:17;7.07;;;3.30;;
80295;SDS011;69597;42.124;24.722;2023-05-10T02:59:47;5.95;;;3.47;;
80295;SDS011;69597;42.124;24.722;2023-05-10T03:02:12;5.57;;;3.45;;
80295;SDS011;69597;42.124;24.722;2023-05-10T03:04:39;5.80;;;3.22;;
80295;SDS011;69597;42.124;24.722;2023-05-10T03:07:04;6.35;;;3.22;;
80295;SDS011;69597;42.124;24.722;2023-05-10T03:09:31;5.68;;;3.40;;
80295;SDS011;69597;42.124;24.722;2023-05-10T03:12:02;6.10;;;3.30;;
80295;SDS011;69597;42.124;24.722;2023-05-10T03:17:36;5.75;;;3.45;;
80295;SDS011;69597;42.124;24.722;2023-05-10T03:20:08;7.07;;;3.47;;
80295;SDS011;69597;42.124;24.722;2023-05-10T03:22:47;5.63;;;3.00;;
80295;SDS011;69597;42.124;24.722;2023-05-10T03:25:16;6.18;;;3.15;;
80295;SDS011;69597;42.124;24.722;2023-05-10T03:27:43;5.73;;;3.30;;
80295;SDS011;69597;42.124;24.722;2023-05-10T03:30:10;6.43;;;3.60;;
80295;SDS011;69597;42.124;24.722;2023-05-10T03:32:37;5.30;;;3.00;;
80295;SDS011;69597;42.124;24.722;2023-05-10T03:35:07;5.65;;;3.17;;
80295;SDS011;69597;42.124;24.722;2023-05-10T03:37:37;6.32;;;3.30;;
80295;SDS011;69597;42.124;24.722;2023-05-10T03:40:03;5.32;;;3.28;;
80295;SDS011;69597;42.124;24.722;2023-05-10T03:42:29;5.55;;;2.97;;
80295;SDS011;69597;42.124;24.722;2023-05-10T03:44:55;6.65;;;3.38;;
80295;SDS011;69597;42.124;24.722;2023-05-10T03:47:21;7.18;;;3.33;;
80295;SDS011;69597;42.124;24.722;2023-05-10T03:49:46;7.30;;;3.50;;
80295;SDS011;69597;42.124;24.722;2023-05-10T03:52:12;10.73;;;4.00;;
80295;SDS011;69597;42.124;24.722;2023-05-10T03:54:38;9.85;;;3.65;;
80295;SDS011;69597;42.124;24.722;2023-05-10T03:57:04;9.98;;;4.07;;
80295;SDS011;69597;42.124;24.722;2023-05-10T03:59:30;10.43;;;4.35;;
80295;SDS011;69597;42.124;24.722;2023-05-10T04:01:56;8.52;;;4.68;;
80295;SDS011;69597;42.124;24.722;2023-05-10T04:04:21;9.85;;;4.50;;
80295;SDS011;69597;42.124;24.722;2023-05-10T04:06:48;8.98;;;4.57;;
80295;SDS011;69597;42.124;24.722;2023-05-10T04:09:14;10.15;;;5.18;;
80295;SDS011;69597;42.124;24.722;2023-05-10T04:11:40;9.43;;;4.80;;
80295;SDS011;69597;42.124;24.722;2023-05-10T04:14:06;9.50;;;5.07;;
80295;SDS011;69597;42.124;24.722;2023-05-10T04:16:31;8.57;;;5.00;;
80295;SDS011;69597;42.124;24.722;2023-05-10T04:18:57;10.35;;;5.40;;
80295;SDS011;69597;42.124;24.722;2023-05-10T04:21:23;11.02;;;5.85;;
80295;SDS011;69597;42.124;24.722;2023-05-10T04:23:48;11.48;;;7.25;;
80295;SDS011;69597;42.124;24.722;2023-05-10T04:26:14;10.88;;;6.40;;
80295;SDS011;69597;42.124;24.722;2023-05-10T04:28:39;12.27;;;6.45;;
80295;SDS011;69597;42.124;24.722;2023-05-10T04:31:06;20.63;;;9.00;;
80295;SDS011;69597;42.124;24.722;2023-05-10T04:35:59;26.73;;;17.08;;
80295;SDS011;69597;42.124;24.722;2023-05-10T04:38:25;22.05;;;15.10;;
80295;SDS011;69597;42.124;24.722;2023-05-10T04:40:52;16.17;;;11.98;;
80295;SDS011;69597;42.124;24.722;2023-05-10T04:43:17;18.92;;;11.32;;
80295;SDS011;69597;42.124;24.722;2023-05-10T04:45:43;17.55;;;10.65;;
80295;SDS011;69597;42.124;24.722;2023-05-10T04:48:09;18.02;;;10.40;;
80295;SDS011;69597;42.124;24.722;2023-05-10T04:50:35;13.32;;;8.70;;
80295;SDS011;69597;42.124;24.722;2023-05-10T04:53:01;13.98;;;8.60;;
80295;SDS011;69597;42.124;24.722;2023-05-10T04:55:27;16.38;;;9.02;;
80295;SDS011;69597;42.124;24.722;2023-05-10T04:57:52;17.55;;;8.70;;
80295;SDS011;69597;42.124;24.722;2023-05-10T05:00:20;11.98;;;8.15;;
80295;SDS011;69597;42.124;24.722;2023-05-10T05:02:46;13.68;;;7.78;;
80295;SDS011;69597;42.124;24.722;2023-05-10T05:05:11;11.65;;;7.60;;
80295;SDS011;69597;42.124;24.722;2023-05-10T05:07:37;13.32;;;8.20;;
80295;SDS011;69597;42.124;24.722;2023-05-10T05:10:04;13.52;;;8.88;;
80295;SDS011;69597;42.124;24.722;2023-05-10T05:12:33;14.98;;;10.50;;
80295;SDS011;69597;42.124;24.722;2023-05-10T05:14:59;16.08;;;10.60;;
80295;SDS011;69597;42.124;24.722;2023-05-10T05:17:25;18.75;;;10.40;;
80295;SDS011;69597;42.124;24.722;2023-05-10T05:19:51;16.40;;;10.02;;
80295;SDS011;69597;42.124;24.722;2023-05-10T05:22:17;16.50;;;10.75;;
80295;SDS011;69597;42.124;24.722;2023-05-10T05:24:44;17.50;;;13.02;;
80295;SDS011;69597;42.124;24.722;2023-05-10T05:27:10;26.25;;;20.92;;
80295;SDS011;69597;42.124;24.722;2023-05-10T05:29:36;32.42;;;26.83;;
80295;SDS011;69597;42.124;24.722;2023-05-10T05:32:01;33.58;;;26.67;;
80295;SDS011;69597;42.124;24.722;2023-05-10T05:34:27;34.47;;;21.60;;
80295;SDS011;69597;42.124;24.722;2023-05-10T05:36:53;27.73;;;24.45;;
80295;SDS011;69597;42.124;24.722;2023-05-10T05:39:19;31.02;;;24.77;;
80295;SDS011;69597;42.124;24.722;2023-05-10T05:41:44;27.30;;;21.55;;
80295;SDS011;69597;42.124;24.722;2023-05-10T05:44:11;24.95;;;20.33;;
80295;SDS011;69597;42.124;24.722;2023-05-10T05:46:37;26.17;;;18.90;;
80295;SDS011;69597;42.124;24.722;2023-05-10T05:49:03;22.98;;;18.20;;
80295;SDS011;69597;42.124;24.722;2023-05-10T05:51:28;25.95;;;19.95;;
80295;SDS011;69597;42.124;24.722;2023-05-10T05:53:54;29.23;;;19.13;;
80295;SDS011;69597;42.124;24.722;2023-05-10T05:56:20;21.02;;;15.90;;
80295;SDS011;69597;42.124;24.722;2023-05-10T05:58:49;25.02;;;14.77;;
80295;SDS011;69597;42.124;24.722;2023-05-10T06:01:15;20.77;;;14.57;;
80295;SDS011;69597;42.124;24.722;2023-05-10T06:03:41;17.88;;;12.93;;
80295;SDS011;69597;42.124;24.722;2023-05-10T06:06:07;16.88;;;11.88;;
80295;SDS011;69597;42.124;24.722;2023-05-10T06:08:33;33.90;;;11.10;;
80295;SDS011;69597;42.124;24.722;2023-05-10T06:10:59;20.33;;;10.95;;
80295;SDS011;69597;42.124;24.722;2023-05-10T06:13:25;17.45;;;10.32;;
80295;SDS011;69597;42.124;24.722;2023-05-10T06:15:56;16.38;;;9.75;;
80295;SDS011;69597;42.124;24.722;2023-05-10T06:18:26;16.10;;;9.70;;
80295;SDS011;69597;42.124;24.722;2023-05-10T06:20:51;17.77;;;9.27;;
80295;SDS011;69597;42.124;24.722;2023-05-10T06:23:17;16.40;;;9.27;;
80295;SDS011;69597;42.124;24.722;2023-05-10T06:25:43;17.00;;;9.18;;
80295;SDS011;69597;42.124;24.722;2023-05-10T06:28:08;17.90;;;9.07;;
80295;SDS011;69597;42.124;24.722;2023-05-10T06:30:35;16.02;;;8.75;;
80295;SDS011;69597;42.124;24.722;2023-05-10T06:33:01;19.07;;;9.60;;
80295;SDS011;69597;42.124;24.722;2023-05-10T06:35:27;13.52;;;8.55;;
80295;SDS011;69597;42.124;24.722;2023-05-10T06:37:54;14.88;;;8.70;;
80295;SDS011;69597;42.124;24.722;2023-05-10T06:40:20;16.83;;;8.55;;
80295;SDS011;69597;42.124;24.722;2023-05-10T06:42:46;14.45;;;8.43;;
80295;SDS011;69597;42.124;24.722;2023-05-10T06:45:13;16.60;;;8.38;;
80295;SDS011;69597;42.124;24.722;2023-05-10T06:47:39;12.68;;;8.55;;
80295;SDS011;69597;42.124;24.722;2023-05-10T06:50:06;15.38;;;8.90;;
80295;SDS011;69597;42.124;24.722;2023-05-10T06:52:34;14.45;;;8.30;;
80295;SDS011;69597;42.124;24.722;2023-05-10T06:55:00;16.23;;;8.00;;
80295;SDS011;69597;42.124;24.722;2023-05-10T06:57:26;14.48;;;8.02;;
80295;SDS011;69597;42.124;24.722;2023-05-10T06:59:52;15.68;;;8.40;;
80295;SDS011;69597;42.124;24.722;2023-05-10T07:02:18;12.63;;;7.75;;
80295;SDS011;69597;42.124;24.722;2023-05-10T07:04:44;15.23;;;8.20;;
80295;SDS011;69597;42.124;24.722;2023-05-10T07:07:11;11.20;;;7.53;;
80295;SDS011;69597;42.124;24.722;2023-05-10T07:09:38;14.98;;;7.85;;
80295;SDS011;69597;42.124;24.722;2023-05-10T07:12:04;14.20;;;7.90;;
80295;SDS011;69597;42.124;24.722;2023-05-10T07:14:29;13.18;;;8.00;;
80295;SDS011;69597;42.124;24.722;2023-05-10T07:16:55;14.07;;;7.95;;
80295;SDS011;69597;42.124;24.722;2023-05-10T07:19:21;12.55;;;7.95;;
80295;SDS011;69597;42.124;24.722;2023-05-10T07:21:47;11.80;;;7.65;;
80295;SDS011;69597;42.124;24.722;2023-05-10T07:24:13;11.82;;;7.43;;
80295;SDS011;69597;42.124;24.722;2023-05-10T07:26:38;12.43;;;7.78;;
80295;SDS011;69597;42.124;24.722;2023-05-10T07:29:04;12.00;;;7.93;;
80295;SDS011;69597;42.124;24.722;2023-05-10T07:31:30;10.65;;;7.30;;
80295;SDS011;69597;42.124;24.722;2023-05-10T07:33:56;10.00;;;7.22;;
80295;SDS011;69597;42.124;24.722;2023-05-10T07:36:21;14.13;;;7.38;;
80295;SDS011;69597;42.124;24.722;2023-05-10T07:38:47;10.88;;;7.00;;
80295;SDS011;69597;42.124;24.722;2023-05-10T07:41:14;15.30;;;7.40;;
80295;SDS011;69597;42.124;24.722;2023-05-10T07:43:40;11.90;;;7.55;;
80295;SDS011;69597;42.124;24.722;2023-05-10T07:46:06;10.65;;;7.20;;
80295;SDS011;69597;42.124;24.722;2023-05-10T07:48:32;13.07;;;7.10;;
80295;SDS011;69597;42.124;24.722;2023-05-10T07:50:58;13.18;;;7.00;;
80295;SDS011;69597;42.124;24.722;2023-05-10T07:53:25;10.50;;;7.15;;
80295;SDS011;69597;42.124;24.722;2023-05-10T07:55:57;14.88;;;7.30;;
80295;SDS011;69597;42.124;24.722;2023-05-10T07:58:23;10.40;;;7.10;;
80295;SDS011;69597;42.124;24.722;2023-05-10T08:00:49;12.15;;;7.30;;
80295;SDS011;69597;42.124;24.722;2023-05-10T08:03:15;10.20;;;6.60;;
80295;SDS011;69597;42.124;24.722;2023-05-10T08:05:41;10.77;;;6.72;;
80295;SDS011;69597;42.124;24.722;2023-05-10T08:08:06;13.20;;;7.28;;
80295;SDS011;69597;42.124;24.722;2023-05-10T08:10:32;12.63;;;7.70;;
80295;SDS011;69597;42.124;24.722;2023-05-10T08:12:58;10.88;;;7.05;;
80295;SDS011;69597;42.124;24.722;2023-05-10T08:15:24;12.45;;;6.95;;
80295;SDS011;69597;42.124;24.722;2023-05-10T08:17:53;11.20;;;6.93;;
80295;SDS011;69597;42.124;24.722;2023-05-10T08:20:19;10.98;;;7.43;;
80295;SDS011;69597;42.124;24.722;2023-05-10T08:22:45;10.65;;;6.68;;
80295;SDS011;69597;42.124;24.722;2023-05-10T08:25:12;10.25;;;7.10;;
80295;SDS011;69597;42.124;24.722;2023-05-10T08:27:37;11.00;;;6.57;;
80295;SDS011;69597;42.124;24.722;2023-05-10T08:30:03;9.95;;;6.70;;
80295;SDS011;69597;42.124;24.722;2023-05-10T08:32:29;10.05;;;6.78;;
80295;SDS011;69597;42.124;24.722;2023-05-10T08:34:55;10.32;;;6.40;;
80295;SDS011;69597;42.124;24.722;2023-05-10T08:37:22;8.93;;;6.22;;
80295;SDS011;69597;42.124;24.722;2023-05-10T08:39:48;10.45;;;6.65;;
80295;SDS011;69597;42.124;24.722;2023-05-10T08:42:15;9.20;;;6.70;;
80295;SDS011;69597;42.124;24.722;2023-05-10T08:44:45;10.25;;;6.38;;
80295;SDS011;69597;42.124;24.722;2023-05-10T08:47:13;10.23;;;6.45;;
80295;SDS011;69597;42.124;24.722;2023-05-10T08:49:41;13.43;;;6.68;;
80295;SDS011;69597;42.124;24.722;2023-05-10T08:52:08;10.43;;;6.53;;
80295;SDS011;69597;42.124;24.722;2023-05-10T08:54:38;9.60;;;6.60;;
80295;SDS011;69597;42.124;24.722;2023-05-10T08:57:04;9.55;;;5.97;;
80295;SDS011;69597;42.124;24.722;2023-05-10T08:59:30;9.98;;;6.45;;
80295;SDS011;69597;42.124;24.722;2023-05-10T09:02:00;9.48;;;6.57;;
80295;SDS011;69597;42.124;24.722;2023-05-10T09:04:26;11.32;;;6.72;;
80295;SDS011;69597;42.124;24.722;2023-05-10T09:06:53;9.80;;;6.28;;
80295;SDS011;69597;42.124;24.722;2023-05-10T09:09:20;11.05;;;6.57;;
80295;SDS011;69597;42.124;24.722;2023-05-10T09:11:47;10.10;;;5.93;;
80295;SDS011;69597;42.124;24.722;2023-05-10T09:14:12;9.02;;;6.03;;
80295;SDS011;69597;42.124;24.722;2023-05-10T09:16:40;9.73;;;6.32;;
80295;SDS011;69597;42.124;24.722;2023-05-10T09:19:06;8.63;;;6.13;;
80295;SDS011;69597;42.124;24.722;2023-05-10T09:21:34;12.20;;;6.30;;
80295;SDS011;69597;42.124;24.722;2023-05-10T09:24:03;9.40;;;5.88;;
80295;SDS011;69597;42.124;24.722;2023-05-10T09:26:30;8.75;;;6.03;;
80295;SDS011;69597;42.124;24.722;2023-05-10T09:28:57;9.57;;;6.30;;
80295;SDS011;69597;42.124;24.722;2023-05-10T09:31:23;8.60;;;5.93;;
80295;SDS011;69597;42.124;24.722;2023-05-10T09:33:50;9.05;;;6.22;;
80295;SDS011;69597;42.124;24.722;2023-05-10T09:36:17;8.35;;;5.78;;
80295;SDS011;69597;42.124;24.722;2023-05-10T09:41:20;9.32;;;6.47;;
80295;SDS011;69597;42.124;24.722;2023-05-10T09:43:47;9.82;;;5.97;;
80295;SDS011;69597;42.124;24.722;2023-05-10T09:46:14;9.05;;;5.68;;
80295;SDS011;69597;42.124;24.722;2023-05-10T09:48:41;9.93;;;5.90;;
80295;SDS011;69597;42.124;24.722;2023-05-10T09:51:09;8.32;;;5.93;;
80295;SDS011;69597;42.124;24.722;2023-05-10T09:53:35;9.65;;;6.10;;
80295;SDS011;69597;42.124;24.722;2023-05-10T09:56:01;10.45;;;5.60;;
80295;SDS011;69597;42.124;24.722;2023-05-10T09:58:26;9.02;;;6.00;;
80295;SDS011;69597;42.124;24.722;2023-05-10T10:00:52;10.13;;;6.13;;
80295;SDS011;69597;42.124;24.722;2023-05-10T10:03:20;10.43;;;5.90;;
80295;SDS011;69597;42.124;24.722;2023-05-10T10:05:46;8.55;;;5.63;;
80295;SDS011;69597;42.124;24.722;2023-05-10T10:08:13;10.45;;;5.70;;
80295;SDS011;69597;42.124;24.722;2023-05-10T10:10:40;11.20;;;5.70;;
80295;SDS011;69597;42.124;24.722;2023-05-10T10:13:06;8.52;;;5.55;;
80295;SDS011;69597;42.124;24.722;2023-05-10T10:15:32;8.45;;;5.50;;
80295;SDS011;69597;42.124;24.722;2023-05-10T10:17:59;8.50;;;5.60;;
80295;SDS011;69597;42.124;24.722;2023-05-10T10:20:25;8.63;;;5.40;;
80295;SDS011;69597;42.124;24.722;2023-05-10T10:22:52;8.88;;;5.72;;
80295;SDS011;69597;42.124;24.722;2023-05-10T10:25:18;9.25;;;5.50;;
80295;SDS011;69597;42.124;24.722;2023-05-10T10:35:32;8.15;;;5.60;;
80295;SDS011;69597;42.124;24.722;2023-05-10T10:37:59;7.97;;;5.03;;
80295;SDS011;69597;42.124;24.722;2023-05-10T10:40:31;8.70;;;5.50;;
80295;SDS011;69597;42.124;24.722;2023-05-10T10:42:58;9.05;;;5.47;;
80295;SDS011;69597;42.124;24.722;2023-05-10T10:48:39;8.88;;;5.18;;
80295;SDS011;69597;42.124;24.722;2023-05-10T10:51:06;9.20;;;5.28;;
80295;SDS011;69597;42.124;24.722;2023-05-10T10:53:32;8.80;;;5.45;;
80295;SDS011;69597;42.124;24.722;2023-05-10T10:56:08;9.35;;;5.03;;
80295;SDS011;69597;42.124;24.722;2023-05-10T11:03:41;7.57;;;4.90;;
80295;SDS011;69597;42.124;24.722;2023-05-10T11:06:29;9.38;;;5.38;;
80295;SDS011;69597;42.124;24.722;2023-05-10T11:08:56;8.40;;;5.20;;
80295;SDS011;69597;42.124;24.722;2023-05-10T11:11:22;8.30;;;4.97;;
80295;SDS011;69597;42.124;24.722;2023-05-10T11:13:48;7.03;;;4.85;;
80295;SDS011;69597;42.124;24.722;2023-05-10T11:16:15;8.02;;;4.90;;
80295;SDS011;69597;42.124;24.722;2023-05-10T11:21:32;7.90;;;4.85;;
80295;SDS011;69597;42.124;24.722;2023-05-10T11:23:58;7.80;;;5.03;;
80295;SDS011;69597;42.124;24.722;2023-05-10T11:26:29;9.15;;;5.18;;
80295;SDS011;69597;42.124;24.722;2023-05-10T11:28:56;7.47;;;4.75;;
80295;SDS011;69597;42.124;24.722;2023-05-10T11:31:23;8.27;;;5.10;;
80295;SDS011;69597;42.124;24.722;2023-05-10T11:33:52;9.05;;;5.15;;
80295;SDS011;69597;42.124;24.722;2023-05-10T11:36:22;7.75;;;5.07;;
80295;SDS011;69597;42.124;24.722;2023-05-10T11:38:50;8.35;;;5.07;;
80295;SDS011;69597;42.124;24.722;2023-05-10T11:41:18;8.82;;;5.13;;
80295;SDS011;69597;42.124;24.722;2023-05-10T11:43:47;7.68;;;4.80;;
80295;SDS011;69597;42.124;24.722;2023-05-10T11:46:14;8.55;;;5.18;;
80295;SDS011;69597;42.124;24.722;2023-05-10T11:48:41;7.07;;;4.68;;
80295;SDS011;69597;42.124;24.722;2023-05-10T11:51:08;8.05;;;4.95;;
80295;SDS011;69597;42.124;24.722;2023-05-10T11:53:36;8.57;;;4.72;;
80295;SDS011;69597;42.124;24.722;2023-05-10T11:56:12;7.55;;;5.05;;
80295;SDS011;69597;42.124;24.722;2023-05-10T11:58:38;8.00;;;5.07;;
80295;SDS011;69597;42.124;24.722;2023-05-10T12:01:05;8.35;;;5.00;;
80295;SDS011;69597;42.124;24.722;2023-05-10T12:03:32;7.85;;;4.78;;
80295;SDS011;69597;42.124;24.722;2023-05-10T12:05:59;7.35;;;5.00;;
80295;SDS011;69597;42.124;24.722;2023-05-10T12:08:26;8.05;;;4.93;;
80295;SDS011;69597;42.124;24.722;2023-05-10T12:10:54;8.80;;;4.90;;
80295;SDS011;69597;42.124;24.722;2023-05-10T12:13:37;7.93;;;4.50;;
80295;SDS011;69597;42.124;24.722;2023-05-10T12:16:14;7.72;;;4.80;;
80295;SDS011;69597;42.124;24.722;2023-05-10T12:18:42;8.27;;;4.45;;
80295;SDS011;69597;42.124;24.722;2023-05-10T12:21:09;7.45;;;4.63;;
80295;SDS011;69597;42.124;24.722;2023-05-10T12:23:36;7.10;;;4.60;;
80295;SDS011;69597;42.124;24.722;2023-05-10T12:26:02;7.80;;;4.53;;
80295;SDS011;69597;42.124;24.722;2023-05-10T12:28:29;7.05;;;4.68;;
80295;SDS011;69597;42.124;24.722;2023-05-10T12:30:57;6.38;;;4.38;;
80295;SDS011;69597;42.124;24.722;2023-05-10T12:33:23;8.07;;;4.38;;
80295;SDS011;69597;42.124;24.722;2023-05-10T12:35:50;8.45;;;4.55;;
80295;SDS011;69597;42.124;24.722;2023-05-10T12:40:53;8.27;;;4.65;;
80295;SDS011;69597;42.124;24.722;2023-05-10T12:43:19;7.10;;;4.65;;
80295;SDS011;69597;42.124;24.722;2023-05-10T12:45:45;6.78;;;4.57;;
80295;SDS011;69597;42.124;24.722;2023-05-10T12:50:38;7.20;;;4.63;;
80295;SDS011;69597;42.124;24.722;2023-05-10T12:53:04;7.13;;;4.53;;
80295;SDS011;69597;42.124;24.722;2023-05-10T12:55:30;7.05;;;4.30;;
80295;SDS011;69597;42.124;24.722;2023-05-10T12:57:55;6.53;;;4.47;;
80295;SDS011;69597;42.124;24.722;2023-05-10T13:00:21;6.93;;;4.57;;
80295;SDS011;69597;42.124;24.722;2023-05-10T13:02:47;7.45;;;4.78;;
80295;SDS011;69597;42.124;24.722;2023-05-10T13:05:12;7.55;;;4.57;;
80295;SDS011;69597;42.124;24.722;2023-05-10T13:07:38;8.48;;;4.40;;
80295;SDS011;69597;42.124;24.722;2023-05-10T13:10:05;7.05;;;4.38;;
80295;SDS011;69597;42.124;24.722;2023-05-10T13:12:31;8.50;;;4.70;;
80295;SDS011;69597;42.124;24.722;2023-05-10T13:14:57;6.60;;;4.38;;
80295;SDS011;69597;42.124;24.722;2023-05-10T13:17:23;6.43;;;4.38;;
80295;SDS011;69597;42.124;24.722;2023-05-10T13:19:50;6.70;;;4.50;;
80295;SDS011;69597;42.124;24.722;2023-05-10T13:22:15;6.00;;;4.30;;
80295;SDS011;69597;42.124;24.722;2023-05-10T13:24:41;6.72;;;4.25;;
80295;SDS011;69597;42.124;24.722;2023-05-10T13:27:07;7.00;;;4.50;;
80295;SDS011;69597;42.124;24.722;2023-05-10T13:29:32;6.30;;;4.43;;
80295;SDS011;69597;42.124;24.722;2023-05-10T13:31:58;6.40;;;4.15;;
80295;SDS011;69597;42.124;24.722;2023-05-10T13:34:24;7.88;;;4.03;;
80295;SDS011;69597;42.124;24.722;2023-05-10T13:36:50;6.57;;;4.20;;
80295;SDS011;69597;42.124;24.722;2023-05-10T13:39:15;6.43;;;4.40;;
80295;SDS011;69597;42.124;24.722;2023-05-10T13:41:41;6.50;;;4.20;;
80295;SDS011;69597;42.124;24.722;2023-05-10T13:44:07;6.32;;;4.20;;
80295;SDS011;69597;42.124;24.722;2023-05-10T13:46:33;6.72;;;4.38;;
80295;SDS011;69597;42.124;24.722;2023-05-10T13:48:58;6.63;;;3.97;;
80295;SDS011;69597;42.124;24.722;2023-05-10T13:51:24;6.53;;;4.18;;
80295;SDS011;69597;42.124;24.722;2023-05-10T13:53:49;6.95;;;4.07;;
80295;SDS011;69597;42.124;24.722;2023-05-10T13:59:01;6.60;;;4.07;;
80295;SDS011;69597;42.124;24.722;2023-05-10T14:01:26;6.13;;;4.10;;
80295;SDS011;69597;42.124;24.722;2023-05-10T14:03:52;6.93;;;4.40;;
80295;SDS011;69597;42.124;24.722;2023-05-10T14:06:18;7.15;;;4.35;;
80295;SDS011;69597;42.124;24.722;2023-05-10T14:08:43;6.68;;;4.00;;
80295;SDS011;69597;42.124;24.722;2023-05-10T14:11:12;6.38;;;4.28;;
80295;SDS011;69597;42.124;24.722;2023-05-10T14:13:38;7.93;;;4.85;;
80295;SDS011;69597;42.124;24.722;2023-05-10T14:16:04;6.38;;;4.30;;
80295;SDS011;69597;42.124;24.722;2023-05-10T14:18:30;7.00;;;4.07;;
80295;SDS011;69597;42.124;24.722;2023-05-10T14:20:55;9.75;;;4.40;;
80295;SDS011;69597;42.124;24.722;2023-05-10T14:23:22;8.25;;;4.50;;
80295;SDS011;69597;42.124;24.722;2023-05-10T14:25:51;11.15;;;4.82;;
80295;SDS011;69597;42.124;24.722;2023-05-10T14:28:17;9.73;;;4.72;;
80295;SDS011;69597;42.124;24.722;2023-05-10T14:30:43;9.20;;;4.50;;
80295;SDS011;69597;42.124;24.722;2023-05-10T14:33:09;8.45;;;5.20;;
80295;SDS011;69597;42.124;24.722;2023-05-10T14:35:35;8.52;;;4.70;;
80295;SDS011;69597;42.124;24.722;2023-05-10T14:38:04;7.78;;;4.95;;
80295;SDS011;69597;42.124;24.722;2023-05-10T14:40:29;9.30;;;5.20;;
80295;SDS011;69597;42.124;24.722;2023-05-10T14:42:55;8.82;;;5.05;;
80295;SDS011;69597;42.124;24.722;2023-05-10T14:45:21;10.02;;;5.10;;
80295;SDS011;69597;42.124;24.722;2023-05-10T14:47:48;8.98;;;4.97;;
80295;SDS011;69597;42.124;24.722;2023-05-10T14:50:14;7.82;;;5.28;;
80295;SDS011;69597;42.124;24.722;2023-05-10T14:56:01;10.23;;;5.63;;
80295;SDS011;69597;42.124;24.722;2023-05-10T14:58:27;11.07;;;5.50;;
80295;SDS011;69597;42.124;24.722;2023-05-10T15:00:53;11.35;;;5.65;;
80295;SDS011;69597;42.124;24.722;2023-05-10T15:03:19;9.32;;;5.72;;
80295;SDS011;69597;42.124;24.722;2023-05-10T15:05:44;11.02;;;6.07;;
80295;SDS011;69597;42.124;24.722;2023-05-10T15:08:11;10.30;;;6.05;;
80295;SDS011;69597;42.124;24.722;2023-05-10T15:10:37;9.88;;;6.40;;
80295;SDS011;69597;42.124;24.722;2023-05-10T15:13:03;8.55;;;6.13;;
80295;SDS011;69597;42.124;24.722;2023-05-10T15:15:29;12.52;;;6.18;;
80295;SDS011;69597;42.124;24.722;2023-05-10T15:17:55;10.23;;;6.30;;
80295;SDS011;69597;42.124;24.722;2023-05-10T15:20:21;9.45;;;6.05;;
80295;SDS011;69597;42.124;24.722;2023-05-10T15:22:47;8.95;;;6.10;;
80295;SDS011;69597;42.124;24.722;2023-05-10T15:25:13;12.38;;;6.28;;